createdAt,value
2022-08-30T00:00:29.333Z,27.86
2022-08-30T00:01:05.576Z,27.89
2022-08-30T00:01:30.257Z,27.91
2022-08-30T00:01:51.952Z,27.87
2022-08-30T00:02:13.757Z,27.88
2022-08-30T00:02:35.945Z,27.87
2022-08-30T00:02:58.106Z,27.85
2022-08-30T00:03:22.145Z,27.83
2022-08-30T00:03:46.285Z,27.82
2022-08-30T00:04:08.254Z,27.79
2022-08-30T00:04:29.931Z,27.82
2022-08-30T00:04:54.084Z,27.82
2022-08-30T00:05:16.931Z,27.81
2022-08-30T00:05:39.603Z,27.80
2022-08-30T00:06:01.718Z,27.81
2022-08-30T00:06:27.006Z,27.82
2022-08-30T00:06:48.828Z,27.79
2022-08-30T00:07:10.526Z,27.81
2022-08-30T00:07:32.607Z,27.82
2022-08-30T00:07:55.375Z,27.81
2022-08-30T00:08:17.194Z,27.80
2022-08-30T00:08:40.912Z,27.78
2022-08-30T00:09:03.574Z,27.79
2022-08-30T00:09:25.245Z,27.77
2022-08-30T00:09:46.913Z,27.75
2022-08-30T00:10:10.484Z,27.76
2022-08-30T00:10:32.151Z,27.72
2022-08-30T00:10:56.853Z,27.72
2022-08-30T00:11:21.615Z,27.71
2022-08-30T00:11:43.427Z,27.67
2022-08-30T00:12:05.353Z,27.68
2022-08-30T00:12:28.414Z,27.69
2022-08-30T00:12:50.112Z,27.70
2022-08-30T00:13:13.316Z,27.69
2022-08-30T00:13:35.931Z,27.70
2022-08-30T00:13:58.164Z,27.65
2022-08-30T00:14:20.377Z,27.69
2022-08-30T00:14:41.979Z,27.68
2022-08-30T00:15:07.063Z,27.68
2022-08-30T00:15:31.013Z,27.68
2022-08-30T00:15:53.300Z,27.69
2022-08-30T00:16:15.626Z,27.67
2022-08-30T00:16:38.447Z,27.66
2022-08-30T00:17:00.175Z,27.68
2022-08-30T00:17:21.864Z,27.67
2022-08-30T00:17:44.112Z,27.66
2022-08-30T00:18:06.888Z,27.65
2022-08-30T00:18:28.650Z,27.64
2022-08-30T00:18:51.259Z,27.66
2022-08-30T00:19:13.806Z,27.65
2022-08-30T00:19:36.445Z,27.62
2022-08-30T00:19:58.209Z,27.65
2022-08-30T00:20:22.293Z,27.65
2022-08-30T00:20:45.688Z,27.62
2022-08-30T00:21:08.798Z,27.62
2022-08-30T00:21:32.721Z,27.62
2022-08-30T00:21:54.370Z,27.63
2022-08-30T00:22:16.091Z,27.63
2022-08-30T00:22:39.485Z,27.61
2022-08-30T00:23:01.843Z,27.61
2022-08-30T00:23:23.555Z,27.61
2022-08-30T00:23:45.564Z,27.60
2022-08-30T00:24:09.038Z,27.60
2022-08-30T00:24:30.756Z,27.59
2022-08-30T00:24:52.401Z,27.59
2022-08-30T00:25:15.584Z,27.55
2022-08-30T00:25:37.504Z,27.55
2022-08-30T00:26:00.190Z,27.59
2022-08-30T00:26:22.148Z,27.58
2022-08-30T00:26:43.866Z,27.55
2022-08-30T00:27:05.593Z,27.56
2022-08-30T00:27:27.410Z,27.56
2022-08-30T00:27:50.098Z,27.53
2022-08-30T00:28:12.442Z,27.52
2022-08-30T00:28:36.179Z,27.52
2022-08-30T00:28:58.753Z,27.51
2022-08-30T00:29:21.497Z,27.49
2022-08-30T00:29:43.190Z,27.49
2022-08-30T00:30:07.015Z,27.48
2022-08-30T00:30:28.724Z,27.49
2022-08-30T00:30:51.540Z,27.47
2022-08-30T00:31:15.137Z,27.46
2022-08-30T00:31:37.286Z,27.42
2022-08-30T00:31:58.934Z,27.46
2022-08-30T00:32:21.979Z,27.46
2022-08-30T00:32:44.044Z,27.42
2022-08-30T00:33:06.057Z,27.46
2022-08-30T00:33:28.713Z,27.43
2022-08-30T00:33:51.452Z,27.46
2022-08-30T00:34:13.219Z,27.46
2022-08-30T00:34:34.997Z,27.46
2022-08-30T00:34:56.671Z,27.47
2022-08-30T00:35:20.505Z,27.49
2022-08-30T00:35:44.091Z,27.49
2022-08-30T00:36:06.084Z,27.49
2022-08-30T00:36:28.127Z,27.47
2022-08-30T00:36:51.125Z,27.47
2022-08-30T00:37:13.824Z,27.46
2022-08-30T00:37:35.652Z,27.45
2022-08-30T00:37:57.985Z,27.43
2022-08-30T00:38:19.732Z,27.42
2022-08-30T00:38:42.399Z,27.41
2022-08-30T00:39:04.419Z,27.39
2022-08-30T00:39:26.856Z,27.39
2022-08-30T00:39:48.873Z,27.32
2022-08-30T00:40:12.264Z,27.40
2022-08-30T00:40:34.634Z,27.38
2022-08-30T00:40:56.423Z,27.37
2022-08-30T00:41:19.082Z,27.36
2022-08-30T00:41:40.800Z,27.36
2022-08-30T00:42:02.456Z,27.37
2022-08-30T00:42:24.417Z,27.38
2022-08-30T00:42:50.628Z,27.39
2022-08-30T00:43:18.065Z,27.39
2022-08-30T00:43:41.114Z,27.40
2022-08-30T00:44:03.444Z,27.39
2022-08-30T00:44:26.091Z,27.39
2022-08-30T00:44:48.337Z,27.37
2022-08-30T00:45:12.692Z,27.36
2022-08-30T00:45:36.951Z,27.36
2022-08-30T00:46:39.609Z,27.36
2022-08-30T00:47:01.658Z,27.35
2022-08-30T00:47:23.306Z,27.37
2022-08-30T00:47:45.488Z,27.37
2022-08-30T00:48:09.207Z,27.35
2022-08-30T00:48:31.257Z,27.34
2022-08-30T00:48:53.474Z,27.38
2022-08-30T00:49:15.367Z,27.39
2022-08-30T00:49:42.612Z,27.40
2022-08-30T00:50:08.337Z,27.35
2022-08-30T00:50:35.551Z,27.36
2022-08-30T00:51:00.964Z,27.35
2022-08-30T00:51:25.718Z,27.34
2022-08-30T00:51:48.085Z,27.28
2022-08-30T00:52:12.521Z,27.30
2022-08-30T00:52:35.403Z,27.26
2022-08-30T00:53:02.076Z,27.31
2022-08-30T00:53:27.582Z,27.31
2022-08-30T00:53:54.767Z,27.32
2022-08-30T00:54:18.409Z,27.30
2022-08-30T00:54:44.547Z,27.31
2022-08-30T00:55:06.939Z,27.28
2022-08-30T00:55:29.745Z,27.34
2022-08-30T00:55:52.485Z,27.33
2022-08-30T00:56:15.404Z,27.34
2022-08-30T00:56:37.216Z,27.33
2022-08-30T00:56:59.380Z,27.32
2022-08-30T00:57:21.271Z,27.33
2022-08-30T00:57:45.461Z,27.32
2022-08-30T00:58:10.924Z,27.33
2022-08-30T00:58:37.079Z,27.32
2022-08-30T00:59:02.779Z,27.33
2022-08-30T00:59:26.223Z,27.33
2022-08-30T00:59:49.689Z,27.34
2022-08-30T01:00:14.187Z,27.34
2022-08-30T01:00:36.375Z,27.36
2022-08-30T01:01:01.319Z,27.31
2022-08-30T01:01:23.673Z,27.34
2022-08-30T01:01:46.118Z,27.34
2022-08-30T01:02:07.954Z,27.35
2022-08-30T01:02:33.393Z,27.35
2022-08-30T01:02:55.981Z,27.31
2022-08-30T01:03:17.871Z,27.33
2022-08-30T01:03:41.207Z,27.33
2022-08-30T01:04:06.798Z,27.31
2022-08-30T01:04:29.429Z,27.30
2022-08-30T01:04:51.791Z,27.31
2022-08-30T01:05:16.084Z,27.27
2022-08-30T01:05:40.000Z,27.26
2022-08-30T01:06:03.562Z,27.27
2022-08-30T01:06:26.079Z,27.28
2022-08-30T01:06:54.605Z,27.26
2022-08-30T01:07:18.699Z,27.29
2022-08-30T01:07:41.620Z,27.28
2022-08-30T01:08:03.578Z,27.23
2022-08-30T01:08:25.631Z,27.22
2022-08-30T01:08:49.127Z,27.21
2022-08-30T01:09:13.907Z,27.21
2022-08-30T01:09:36.344Z,27.19
2022-08-30T01:09:58.111Z,27.24
2022-08-30T01:10:21.395Z,27.22
2022-08-30T01:10:43.977Z,27.23
2022-08-30T01:11:06.607Z,27.21
2022-08-30T01:11:29.188Z,27.16
2022-08-30T01:11:51.018Z,27.16
2022-08-30T01:12:14.152Z,27.22
2022-08-30T01:12:40.088Z,27.22
2022-08-30T01:13:02.059Z,27.20
2022-08-30T01:13:25.408Z,27.18
2022-08-30T01:13:49.507Z,27.20
2022-08-30T01:14:12.530Z,27.21
2022-08-30T01:14:34.323Z,27.18
2022-08-30T01:14:57.368Z,27.17
2022-08-30T01:15:19.894Z,27.18
2022-08-30T01:15:44.074Z,27.14
2022-08-30T01:16:08.060Z,27.19
2022-08-30T01:16:32.289Z,27.18
2022-08-30T01:16:57.587Z,27.19
2022-08-30T01:17:21.975Z,27.18
2022-08-30T01:17:47.651Z,27.20
2022-08-30T01:18:11.456Z,27.18
2022-08-30T01:18:35.683Z,27.18
2022-08-30T01:18:59.135Z,27.14
2022-08-30T01:19:32.805Z,27.12
2022-08-30T01:19:57.504Z,27.12
2022-08-30T01:20:26.586Z,27.12
2022-08-30T01:20:54.238Z,27.13
2022-08-30T01:21:22.430Z,27.14
2022-08-30T01:21:48.410Z,27.11
2022-08-30T01:22:23.129Z,27.13
2022-08-30T01:22:57.833Z,27.14
2022-08-30T01:23:21.864Z,27.11
2022-08-30T01:23:46.453Z,27.14
2022-08-30T01:24:10.543Z,27.12
2022-08-30T01:24:33.278Z,27.13
2022-08-30T01:24:57.975Z,27.14
2022-08-30T01:25:22.348Z,27.10
2022-08-30T01:25:48.501Z,27.12
2022-08-30T01:26:11.535Z,27.11
2022-08-30T01:26:35.902Z,27.11
2022-08-30T01:26:57.829Z,27.11
2022-08-30T01:27:20.567Z,27.11
2022-08-30T01:27:53.473Z,27.10
2022-08-30T01:28:20.036Z,27.03
2022-08-30T01:28:42.977Z,27.11
2022-08-30T01:29:09.411Z,27.09
2022-08-30T01:29:31.286Z,27.08
2022-08-30T01:29:53.385Z,27.07
2022-08-30T01:30:15.012Z,27.09
2022-08-30T01:30:40.138Z,27.08
2022-08-30T01:31:02.167Z,27.09
2022-08-30T01:31:24.064Z,27.09
2022-08-30T01:31:46.336Z,27.08
2022-08-30T01:32:19.704Z,27.09
2022-08-30T01:32:44.924Z,27.11
2022-08-30T01:33:07.855Z,27.12
2022-08-30T01:33:30.587Z,27.11
2022-08-30T01:33:52.286Z,27.08
2022-08-30T01:34:13.959Z,27.10
2022-08-30T01:34:35.608Z,27.11
2022-08-30T01:34:59.023Z,27.10
2022-08-30T01:35:20.659Z,27.09
2022-08-30T01:35:47.619Z,27.09
2022-08-30T01:36:12.284Z,27.11
2022-08-30T01:36:35.317Z,27.09
2022-08-30T01:36:57.908Z,27.08
2022-08-30T01:37:23.661Z,27.10
2022-08-30T01:37:46.317Z,27.10
2022-08-30T01:38:10.044Z,27.09
2022-08-30T01:38:37.682Z,27.09
2022-08-30T01:38:59.384Z,27.11
2022-08-30T01:39:21.510Z,27.11
2022-08-30T01:39:45.658Z,27.12
2022-08-30T01:40:09.315Z,27.11
2022-08-30T01:40:32.021Z,27.11
2022-08-30T01:40:57.574Z,27.10
2022-08-30T01:41:22.569Z,27.08
2022-08-30T01:41:44.335Z,27.11
2022-08-30T01:42:06.338Z,27.10
2022-08-30T01:42:29.369Z,27.12
2022-08-30T01:42:51.329Z,27.12
2022-08-30T01:43:14.794Z,27.12
2022-08-30T01:43:36.755Z,27.10
2022-08-30T01:44:02.878Z,27.12
2022-08-30T01:44:24.518Z,27.10
2022-08-30T01:44:47.108Z,27.10
2022-08-30T01:45:09.866Z,27.12
2022-08-30T01:45:31.520Z,27.12
2022-08-30T01:45:53.254Z,27.12
2022-08-30T01:46:18.255Z,27.11
2022-08-30T01:46:42.660Z,27.11
2022-08-30T01:47:04.606Z,27.02
2022-08-30T01:47:27.320Z,27.09
2022-08-30T01:47:50.572Z,27.06
2022-08-30T01:48:13.721Z,27.08
2022-08-30T01:48:35.450Z,27.09
2022-08-30T01:48:58.409Z,27.09
2022-08-30T01:49:26.030Z,27.09
2022-08-30T01:49:51.343Z,27.11
2022-08-30T01:50:13.236Z,27.12
2022-08-30T01:50:35.334Z,27.13
2022-08-30T01:50:59.105Z,27.12
2022-08-30T01:51:24.770Z,26.99
2022-08-30T01:51:46.792Z,27.10
2022-08-30T01:52:08.809Z,27.09
2022-08-30T01:52:30.488Z,27.10
2022-08-30T01:52:53.183Z,27.06
2022-08-30T01:53:16.324Z,27.12
2022-08-30T01:53:38.511Z,27.11
2022-08-30T01:54:00.777Z,27.12
2022-08-30T01:54:23.469Z,27.12
2022-08-30T01:54:54.810Z,27.11
2022-08-30T01:55:16.514Z,27.10
2022-08-30T01:55:39.012Z,27.11
2022-08-30T01:56:01.637Z,27.12
2022-08-30T01:56:24.164Z,27.13
2022-08-30T01:56:45.845Z,27.13
2022-08-30T01:57:08.469Z,27.09
2022-08-30T01:57:30.352Z,27.14
2022-08-30T01:57:52.979Z,27.15
2022-08-30T01:58:14.693Z,27.16
2022-08-30T01:58:38.039Z,27.16
2022-08-30T01:59:02.813Z,27.16
2022-08-30T01:59:26.276Z,27.16
2022-08-30T01:59:50.133Z,27.10
2022-08-30T02:00:12.699Z,27.16
2022-08-30T02:00:35.324Z,27.16
2022-08-30T02:00:57.664Z,27.17
2022-08-30T02:01:24.391Z,27.15
2022-08-30T02:01:46.419Z,27.17
2022-08-30T02:02:09.468Z,27.16
2022-08-30T02:02:31.265Z,27.11
2022-08-30T02:02:53.021Z,27.18
2022-08-30T02:03:14.725Z,27.16
2022-08-30T02:03:37.257Z,27.17
2022-08-30T02:04:00.035Z,27.18
2022-08-30T02:04:21.806Z,27.17
2022-08-30T02:04:44.165Z,27.15
2022-08-30T02:05:06.901Z,27.13
2022-08-30T02:05:29.880Z,27.14
2022-08-30T02:05:51.806Z,27.16
2022-08-30T02:06:15.992Z,27.16
2022-08-30T02:06:38.580Z,27.09
2022-08-30T02:07:00.390Z,27.14
2022-08-30T02:07:23.947Z,27.15
2022-08-30T02:07:45.588Z,27.16
2022-08-30T02:08:07.601Z,27.15
2022-08-30T02:08:30.631Z,27.18
2022-08-30T02:08:57.139Z,27.18
2022-08-30T02:09:19.076Z,27.14
2022-08-30T02:09:40.889Z,27.17
2022-08-30T02:10:02.632Z,27.10
2022-08-30T02:10:25.910Z,27.16
2022-08-30T02:10:47.713Z,27.18
2022-08-30T02:11:10.998Z,27.16
2022-08-30T02:11:32.780Z,27.15
2022-08-30T02:11:55.462Z,27.15
2022-08-30T02:12:17.949Z,27.09
2022-08-30T02:12:39.547Z,27.16
2022-08-30T02:13:03.029Z,27.13
2022-08-30T02:13:24.940Z,27.13
2022-08-30T02:13:46.857Z,27.13
2022-08-30T02:14:08.506Z,27.14
2022-08-30T02:14:31.612Z,27.14
2022-08-30T02:14:54.234Z,27.13
2022-08-30T02:15:16.322Z,27.12
2022-08-30T02:15:41.696Z,27.12
2022-08-30T02:16:03.680Z,27.13
2022-08-30T02:16:27.508Z,27.10
2022-08-30T02:16:49.311Z,27.11
2022-08-30T02:17:14.119Z,27.10
2022-08-30T02:17:36.032Z,27.11
2022-08-30T02:17:58.627Z,27.11
2022-08-30T02:18:23.746Z,27.11
2022-08-30T02:18:45.791Z,27.10
2022-08-30T02:19:07.774Z,27.12
2022-08-30T02:19:30.759Z,27.10
2022-08-30T02:19:52.537Z,27.11
2022-08-30T02:20:14.220Z,27.13
2022-08-30T02:20:38.303Z,27.13
2022-08-30T02:21:00.936Z,27.13
2022-08-30T02:21:23.226Z,27.13
2022-08-30T02:21:44.920Z,27.17
2022-08-30T02:22:06.884Z,27.17
2022-08-30T02:22:29.640Z,27.22
2022-08-30T02:22:51.330Z,27.17
2022-08-30T02:23:13.185Z,27.22
2022-08-30T02:23:36.395Z,27.12
2022-08-30T02:23:59.224Z,27.19
2022-08-30T02:24:20.873Z,27.20
2022-08-30T02:24:42.553Z,27.21
2022-08-30T02:25:04.961Z,27.22
2022-08-30T02:25:28.109Z,27.21
2022-08-30T02:25:49.796Z,27.22
2022-08-30T02:26:12.768Z,27.26
2022-08-30T02:26:36.547Z,27.25
2022-08-30T02:26:59.324Z,27.23
2022-08-30T02:27:21.053Z,27.24
2022-08-30T02:27:42.730Z,27.27
2022-08-30T02:28:05.255Z,27.29
2022-08-30T02:28:29.087Z,27.29
2022-08-30T02:28:52.127Z,27.30
2022-08-30T02:29:13.801Z,27.31
2022-08-30T02:29:35.625Z,27.32
2022-08-30T02:29:57.344Z,27.34
2022-08-30T02:30:20.185Z,27.35
2022-08-30T02:30:42.647Z,27.36
2022-08-30T02:31:04.527Z,27.36
2022-08-30T02:31:26.680Z,27.30
2022-08-30T02:31:49.872Z,27.37
2022-08-30T02:32:11.572Z,27.39
2022-08-30T02:32:33.289Z,27.39
2022-08-30T02:32:55.887Z,27.38
2022-08-30T02:33:17.774Z,27.29
2022-08-30T02:33:40.495Z,27.38
2022-08-30T02:34:02.304Z,27.35
2022-08-30T02:34:24.014Z,27.34
2022-08-30T02:34:47.213Z,27.27
2022-08-30T02:35:09.448Z,27.34
2022-08-30T02:35:31.455Z,27.36
2022-08-30T02:35:53.132Z,27.33
2022-08-30T02:36:16.000Z,27.36
2022-08-30T02:36:40.674Z,27.33
2022-08-30T02:37:02.465Z,27.35
2022-08-30T02:37:24.101Z,27.32
2022-08-30T02:37:46.790Z,27.33
2022-08-30T02:38:09.763Z,27.30
2022-08-30T02:38:31.401Z,27.33
2022-08-30T02:38:54.413Z,27.30
2022-08-30T02:39:17.403Z,27.36
2022-08-30T02:39:39.087Z,27.36
2022-08-30T02:40:00.803Z,27.37
2022-08-30T02:40:22.804Z,27.36
2022-08-30T02:40:45.622Z,27.37
2022-08-30T02:41:07.660Z,27.36
2022-08-30T02:41:29.352Z,27.33
2022-08-30T02:41:51.029Z,27.35
2022-08-30T02:42:12.866Z,27.36
2022-08-30T02:42:36.393Z,27.31
2022-08-30T02:42:58.463Z,27.34
2022-08-30T02:43:20.258Z,27.35
2022-08-30T02:43:42.064Z,27.34
2022-08-30T02:44:03.992Z,27.31
2022-08-30T02:44:26.649Z,27.31
2022-08-30T02:44:48.317Z,27.27
2022-08-30T02:45:10.745Z,27.26
2022-08-30T02:45:32.425Z,27.28
2022-08-30T02:45:54.424Z,27.27
2022-08-30T02:46:17.917Z,27.26
2022-08-30T02:46:39.887Z,27.27
2022-08-30T02:47:01.645Z,27.24
2022-08-30T02:47:23.320Z,27.23
2022-08-30T02:47:47.109Z,27.20
2022-08-30T02:48:09.696Z,27.19
2022-08-30T02:48:31.354Z,27.18
2022-08-30T02:48:53.101Z,27.19
2022-08-30T02:49:57.432Z,27.17
2022-08-30T02:50:20.036Z,27.18
2022-08-30T02:50:43.003Z,27.13
2022-08-30T02:51:06.591Z,27.12
2022-08-30T02:51:31.171Z,27.16
2022-08-30T02:51:52.974Z,27.17
2022-08-30T02:52:15.687Z,27.17
2022-08-30T02:52:37.866Z,27.17
2022-08-30T02:52:59.515Z,27.18
2022-08-30T02:53:22.439Z,27.15
2022-08-30T02:53:45.688Z,27.17
2022-08-30T02:54:09.680Z,27.16
2022-08-30T02:54:33.157Z,27.18
2022-08-30T02:54:55.183Z,27.20
2022-08-30T02:55:17.640Z,27.20
2022-08-30T02:55:39.511Z,27.18
2022-08-30T02:56:02.232Z,27.21
2022-08-30T02:56:23.900Z,27.18
2022-08-30T02:56:45.824Z,27.16
2022-08-30T02:57:08.732Z,27.12
2022-08-30T02:57:43.570Z,27.16
2022-08-30T02:58:05.793Z,27.17
2022-08-30T02:58:27.471Z,27.16
2022-08-30T02:58:52.217Z,27.16
2022-08-30T02:59:15.055Z,27.17
2022-08-30T02:59:41.603Z,27.17
2022-08-30T03:00:06.052Z,27.20
2022-08-30T03:00:27.665Z,27.16
2022-08-30T03:00:50.412Z,27.17
2022-08-30T03:01:15.857Z,27.17
2022-08-30T03:01:39.090Z,27.18
2022-08-30T03:02:00.953Z,27.20
2022-08-30T03:02:23.735Z,27.20
2022-08-30T03:02:45.489Z,27.18
2022-08-30T03:03:07.626Z,27.17
2022-08-30T03:03:29.543Z,27.19
2022-08-30T03:03:51.421Z,27.17
2022-08-30T03:04:14.624Z,27.18
2022-08-30T03:04:36.592Z,27.20
2022-08-30T03:04:58.714Z,27.15
2022-08-30T03:05:20.536Z,27.17
2022-08-30T03:05:43.361Z,27.19
2022-08-30T03:06:05.340Z,27.19
2022-08-30T03:06:26.982Z,27.17
2022-08-30T03:06:48.599Z,27.16
2022-08-30T03:07:12.394Z,27.16
2022-08-30T03:07:34.312Z,27.16
2022-08-30T03:07:55.992Z,27.13
2022-08-30T03:08:17.707Z,27.13
2022-08-30T03:08:40.747Z,27.14
2022-08-30T03:09:03.865Z,27.12
2022-08-30T03:09:26.916Z,27.13
2022-08-30T03:09:48.508Z,27.11
2022-08-30T03:10:12.004Z,27.06
2022-08-30T03:10:36.361Z,27.08
2022-08-30T03:10:58.007Z,27.05
2022-08-30T03:11:22.323Z,27.08
2022-08-30T03:11:46.372Z,27.09
2022-08-30T03:12:09.220Z,27.09
2022-08-30T03:12:32.457Z,27.09
2022-08-30T03:12:57.750Z,27.08
2022-08-30T03:13:19.787Z,27.07
2022-08-30T03:13:41.882Z,27.08
2022-08-30T03:14:04.119Z,27.08
2022-08-30T03:14:28.092Z,27.10
2022-08-30T03:14:49.744Z,27.06
2022-08-30T03:15:13.089Z,27.05
2022-08-30T03:15:35.427Z,27.05
2022-08-30T03:15:57.578Z,27.08
2022-08-30T03:16:21.730Z,27.08
2022-08-30T03:16:43.509Z,27.05
2022-08-30T03:17:06.903Z,26.97
2022-08-30T03:17:34.894Z,27.02
2022-08-30T03:17:57.683Z,27.03
2022-08-30T03:18:20.154Z,27.01
2022-08-30T03:18:43.103Z,27.01
2022-08-30T03:19:04.886Z,26.99
2022-08-30T03:19:27.571Z,26.99
2022-08-30T03:19:49.297Z,27.00
2022-08-30T03:20:11.941Z,26.99
2022-08-30T03:20:35.009Z,27.00
2022-08-30T03:20:57.680Z,26.99
2022-08-30T03:21:19.338Z,26.97
2022-08-30T03:21:40.995Z,27.02
2022-08-30T03:22:03.451Z,27.02
2022-08-30T03:22:26.078Z,27.03
2022-08-30T03:22:47.808Z,27.04
2022-08-30T03:23:09.513Z,27.04
2022-08-30T03:23:31.432Z,27.04
2022-08-30T03:23:53.061Z,27.06
2022-08-30T03:24:15.728Z,27.07
2022-08-30T03:24:40.308Z,27.10
2022-08-30T03:25:02.265Z,27.06
2022-08-30T03:25:24.158Z,27.05
2022-08-30T03:25:45.796Z,27.05
2022-08-30T03:26:08.497Z,27.02
2022-08-30T03:26:30.201Z,26.96
2022-08-30T03:26:52.025Z,27.03
2022-08-30T03:27:13.802Z,27.01
2022-08-30T03:27:36.660Z,27.01
2022-08-30T03:27:58.278Z,27.03
2022-08-30T03:28:19.985Z,27.01
2022-08-30T03:28:42.346Z,27.01
2022-08-30T03:29:05.045Z,26.99
2022-08-30T03:29:26.764Z,27.00
2022-08-30T03:29:48.467Z,26.99
2022-08-30T03:30:12.050Z,27.00
2022-08-30T03:30:35.467Z,27.01
2022-08-30T03:30:57.244Z,27.02
2022-08-30T03:31:18.906Z,27.02
2022-08-30T03:31:52.445Z,27.02
2022-08-30T03:32:15.531Z,27.01
2022-08-30T03:32:37.319Z,27.03
2022-08-30T03:32:59.505Z,27.00
2022-08-30T03:33:22.597Z,27.06
2022-08-30T03:33:45.337Z,27.04
2022-08-30T03:34:07.022Z,27.03
2022-08-30T03:34:28.757Z,27.03
2022-08-30T03:34:50.609Z,27.04
2022-08-30T03:35:14.622Z,27.04
2022-08-30T03:35:36.538Z,27.05
2022-08-30T03:35:58.241Z,27.03
2022-08-30T03:36:21.310Z,27.04
2022-08-30T03:36:42.983Z,26.99
2022-08-30T03:37:04.692Z,26.92
2022-08-30T03:37:27.642Z,26.94
2022-08-30T03:37:56.210Z,26.94
2022-08-30T03:38:18.364Z,26.91
2022-08-30T03:38:40.204Z,26.94
2022-08-30T03:39:01.923Z,26.94
2022-08-30T03:39:25.575Z,26.89
2022-08-30T03:39:48.737Z,26.94
2022-08-30T03:40:12.521Z,26.92
2022-08-30T03:40:35.914Z,26.91
2022-08-30T03:40:58.644Z,26.91
2022-08-30T03:41:21.516Z,26.91
2022-08-30T03:41:43.435Z,26.92
2022-08-30T03:42:05.607Z,26.90
2022-08-30T03:42:27.292Z,26.90
2022-08-30T03:42:50.289Z,26.89
2022-08-30T03:43:12.024Z,26.87
2022-08-30T03:43:34.738Z,26.88
2022-08-30T03:44:00.041Z,26.89
2022-08-30T03:44:24.474Z,26.88
2022-08-30T03:44:47.306Z,26.89
2022-08-30T03:45:09.666Z,26.91
2022-08-30T03:45:31.378Z,26.91
2022-08-30T03:45:54.355Z,26.88
2022-08-30T03:46:16.420Z,26.89
2022-08-30T03:46:38.210Z,26.89
2022-08-30T03:46:59.946Z,26.91
2022-08-30T03:47:21.637Z,26.91
2022-08-30T03:47:45.012Z,26.92
2022-08-30T03:48:06.864Z,26.92
2022-08-30T03:48:28.946Z,26.92
2022-08-30T03:48:52.086Z,26.91
2022-08-30T03:49:14.957Z,26.92
2022-08-30T03:49:36.633Z,26.88
2022-08-30T03:49:58.335Z,26.88
2022-08-30T03:50:20.001Z,26.89
2022-08-30T03:50:42.679Z,26.88
2022-08-30T03:51:05.065Z,26.86
2022-08-30T03:51:27.831Z,26.89
2022-08-30T03:51:49.520Z,26.80
2022-08-30T03:52:12.171Z,26.89
2022-08-30T03:52:33.959Z,26.92
2022-08-30T03:52:55.799Z,26.91
2022-08-30T03:53:17.655Z,26.91
2022-08-30T03:53:40.440Z,26.92
2022-08-30T03:54:02.772Z,26.91
2022-08-30T03:54:24.909Z,26.90
2022-08-30T03:54:48.159Z,26.87
2022-08-30T03:55:10.787Z,26.95
2022-08-30T03:55:32.576Z,26.90
2022-08-30T03:55:54.894Z,26.91
2022-08-30T03:56:17.805Z,26.88
2022-08-30T03:56:41.047Z,26.79
2022-08-30T03:57:02.715Z,26.88
2022-08-30T03:57:24.723Z,26.87
2022-08-30T03:57:46.746Z,26.86
2022-08-30T03:58:09.665Z,26.85
2022-08-30T03:58:31.473Z,26.82
2022-08-30T03:58:53.309Z,26.81
2022-08-30T03:59:15.510Z,26.79
2022-08-30T03:59:37.185Z,26.79
2022-08-30T03:59:59.849Z,26.81
2022-08-30T04:00:21.801Z,26.74
2022-08-30T04:00:43.555Z,26.80
2022-08-30T04:01:05.258Z,26.81
2022-08-30T04:01:28.132Z,26.80
2022-08-30T04:01:50.002Z,26.78
2022-08-30T04:02:11.720Z,26.78
2022-08-30T04:02:34.517Z,26.77
2022-08-30T04:02:56.281Z,26.74
2022-08-30T04:03:18.483Z,26.74
2022-08-30T04:03:40.424Z,26.74
2022-08-30T04:04:03.609Z,26.72
2022-08-30T04:04:25.439Z,26.72
2022-08-30T04:04:47.190Z,26.70
2022-08-30T04:05:10.043Z,26.70
2022-08-30T04:05:32.799Z,26.68
2022-08-30T04:05:55.600Z,26.67
2022-08-30T04:06:17.216Z,26.67
2022-08-30T04:06:38.911Z,26.63
2022-08-30T04:07:00.680Z,26.63
2022-08-30T04:07:23.317Z,26.62
2022-08-30T04:07:45.817Z,26.63
2022-08-30T04:08:07.570Z,26.61
2022-08-30T04:08:29.367Z,26.63
2022-08-30T04:08:52.234Z,26.63
2022-08-30T04:09:13.925Z,26.63
2022-08-30T04:09:35.655Z,26.64
2022-08-30T04:10:00.765Z,26.63
2022-08-30T04:10:22.902Z,26.53
2022-08-30T04:10:44.553Z,26.64
2022-08-30T04:11:07.168Z,26.65
2022-08-30T04:11:29.895Z,26.65
2022-08-30T04:11:51.653Z,26.66
2022-08-30T04:12:13.620Z,26.65
2022-08-30T04:12:39.994Z,26.64
2022-08-30T04:13:01.687Z,26.63
2022-08-30T04:13:25.264Z,26.62
2022-08-30T04:13:49.372Z,26.62
2022-08-30T04:14:11.013Z,26.64
2022-08-30T04:14:33.950Z,26.65
2022-08-30T04:14:55.762Z,26.65
2022-08-30T04:15:19.172Z,26.67
2022-08-30T04:15:41.884Z,26.67
2022-08-30T04:16:04.107Z,26.63
2022-08-30T04:16:26.384Z,26.64
2022-08-30T04:16:48.137Z,26.63
2022-08-30T04:17:10.784Z,26.63
2022-08-30T04:17:32.560Z,26.61
2022-08-30T04:17:54.904Z,26.60
2022-08-30T04:18:16.638Z,26.59
2022-08-30T04:18:39.324Z,26.58
2022-08-30T04:19:01.078Z,26.57
2022-08-30T04:19:22.723Z,26.57
2022-08-30T04:19:44.405Z,26.50
2022-08-30T04:20:07.492Z,26.55
2022-08-30T04:20:30.272Z,26.57
2022-08-30T04:20:52.152Z,26.51
2022-08-30T04:21:14.308Z,26.53
2022-08-30T04:21:36.872Z,26.50
2022-08-30T04:22:05.956Z,26.49
2022-08-30T04:22:27.629Z,26.51
2022-08-30T04:22:49.932Z,26.50
2022-08-30T04:23:12.377Z,26.50
2022-08-30T04:23:35.161Z,26.52
2022-08-30T04:23:56.872Z,26.51
2022-08-30T04:24:18.792Z,26.46
2022-08-30T04:24:41.590Z,26.49
2022-08-30T04:25:06.428Z,26.51
2022-08-30T04:25:28.305Z,26.53
2022-08-30T04:25:50.013Z,26.56
2022-08-30T04:26:11.721Z,26.57
2022-08-30T04:26:35.169Z,26.58
2022-08-30T04:26:56.851Z,26.57
2022-08-30T04:27:20.387Z,26.55
2022-08-30T04:27:43.064Z,26.54
2022-08-30T04:28:06.307Z,26.56
2022-08-30T04:28:28.346Z,26.57
2022-08-30T04:28:50.215Z,26.54
2022-08-30T04:29:16.478Z,26.57
2022-08-30T04:29:38.097Z,26.58
2022-08-30T04:30:00.294Z,26.56
2022-08-30T04:30:23.009Z,26.58
2022-08-30T04:30:45.125Z,26.57
2022-08-30T04:31:12.127Z,26.56
2022-08-30T04:31:34.138Z,26.54
2022-08-30T04:31:56.951Z,26.49
2022-08-30T04:32:18.639Z,26.52
2022-08-30T04:32:40.301Z,26.47
2022-08-30T04:33:01.976Z,26.52
2022-08-30T04:33:24.653Z,26.52
2022-08-30T04:33:46.292Z,26.52
2022-08-30T04:34:09.631Z,26.53
2022-08-30T04:34:31.412Z,26.53
2022-08-30T04:34:57.354Z,26.49
2022-08-30T04:35:19.262Z,26.51
2022-08-30T04:35:41.696Z,26.56
2022-08-30T04:36:05.458Z,26.57
2022-08-30T04:36:28.176Z,26.57
2022-08-30T04:36:50.117Z,26.56
2022-08-30T04:37:12.157Z,26.54
2022-08-30T04:37:33.812Z,26.56
2022-08-30T04:37:56.423Z,26.57
2022-08-30T04:38:18.609Z,26.50
2022-08-30T04:38:44.190Z,26.51
2022-08-30T04:39:06.867Z,26.50
2022-08-30T04:39:29.495Z,26.48
2022-08-30T04:39:51.288Z,26.48
2022-08-30T04:40:14.614Z,26.49
2022-08-30T04:40:37.038Z,26.45
2022-08-30T04:41:00.229Z,26.41
2022-08-30T04:41:24.356Z,26.39
2022-08-30T04:41:46.284Z,26.45
2022-08-30T04:42:08.465Z,26.44
2022-08-30T04:42:33.820Z,26.43
2022-08-30T04:42:56.181Z,26.42
2022-08-30T04:43:18.080Z,26.41
2022-08-30T04:43:40.169Z,26.38
2022-08-30T04:44:03.413Z,26.37
2022-08-30T04:44:27.357Z,26.35
2022-08-30T04:44:49.332Z,26.35
2022-08-30T04:45:14.736Z,26.34
2022-08-30T04:45:38.181Z,26.36
2022-08-30T04:45:59.964Z,26.35
2022-08-30T04:46:21.968Z,26.37
2022-08-30T04:46:44.943Z,26.37
2022-08-30T04:47:08.402Z,26.36
2022-08-30T04:47:30.068Z,26.36
2022-08-30T04:47:51.777Z,26.37
2022-08-30T04:48:14.788Z,26.38
2022-08-30T04:48:37.821Z,26.37
2022-08-30T04:48:59.505Z,26.36
2022-08-30T04:49:21.614Z,26.36
2022-08-30T04:49:44.251Z,26.36
2022-08-30T04:50:07.524Z,26.38
2022-08-30T04:50:29.273Z,26.38
2022-08-30T04:50:51.942Z,26.39
2022-08-30T04:51:16.595Z,26.40
2022-08-30T04:51:38.341Z,26.40
2022-08-30T04:52:00.053Z,26.39
2022-08-30T04:52:22.890Z,26.39
2022-08-30T04:52:44.928Z,26.39
2022-08-30T04:53:06.621Z,26.40
2022-08-30T04:53:28.533Z,26.41
2022-08-30T04:53:51.221Z,26.40
2022-08-30T04:54:12.859Z,26.39
2022-08-30T04:54:35.318Z,26.38
2022-08-30T04:54:58.280Z,26.40
2022-08-30T04:55:24.636Z,26.39
2022-08-30T04:55:46.304Z,26.39
2022-08-30T04:56:08.808Z,26.40
2022-08-30T04:56:30.505Z,26.40
2022-08-30T04:56:53.207Z,26.39